createdAt,value
2022-08-09T00:01:25.001Z,33.43
2022-08-09T00:04:34.524Z,33.43
2022-08-09T00:07:25.801Z,33.43
2022-08-09T00:10:24.380Z,33.36
2022-08-09T00:13:17.633Z,33.22
2022-08-09T00:16:12.894Z,33.21
2022-08-09T00:19:09.344Z,33.32
2022-08-09T00:22:03.637Z,33.34
2022-08-09T00:24:55.721Z,33.51
2022-08-09T00:27:48.098Z,33.47
2022-08-09T00:30:38.555Z,33.39
2022-08-09T00:33:32.774Z,33.57
2022-08-09T00:36:41.636Z,33.46
2022-08-09T00:40:13.195Z,34.59
2022-08-09T00:44:19.391Z,36.60
2022-08-09T00:45:54.087Z,35.97
2022-08-09T00:48:47.578Z,36.66
2022-08-09T00:51:44.124Z,37.16
2022-08-09T00:54:45.392Z,37.45
2022-08-09T00:57:36.035Z,37.48
2022-08-09T01:00:25.993Z,37.39
2022-08-09T01:03:19.029Z,37.64
2022-08-09T01:06:17.996Z,37.44
2022-08-09T01:09:15.352Z,38.04
2022-08-09T01:12:19.055Z,38.20
2022-08-09T01:15:17.690Z,38.41
2022-08-09T01:18:14.264Z,38.58
2022-08-09T01:21:18.611Z,38.68
2022-08-09T01:24:17.593Z,38.81
2022-08-09T01:27:10.205Z,38.74
2022-08-09T01:30:05.337Z,38.61
2022-08-09T01:32:59.014Z,38.74
2022-08-09T01:36:01.411Z,38.59
2022-08-09T01:38:53.926Z,38.66
2022-08-09T01:41:53.752Z,38.22
2022-08-09T01:44:52.654Z,37.99
2022-08-09T01:47:44.898Z,37.86
2022-08-09T01:50:36.983Z,37.76
2022-08-09T01:53:41.642Z,37.50
2022-08-09T01:56:35.299Z,37.45
2022-08-09T01:59:32.216Z,37.41
2022-08-09T02:02:31.218Z,37.15
2022-08-09T02:05:37.903Z,37.34
2022-08-09T02:08:57.997Z,37.19
2022-08-09T02:11:50.127Z,37.26
2022-08-09T02:14:43.585Z,37.31
2022-08-09T02:18:00.799Z,37.21
2022-08-09T02:21:00.448Z,37.24
2022-08-09T02:23:56.358Z,37.29
2022-08-09T02:26:50.631Z,37.26
2022-08-09T02:29:47.053Z,37.27
2022-08-09T02:32:46.036Z,37.11
2022-08-09T02:36:02.956Z,37.20
2022-08-09T02:38:56.235Z,37.17
2022-08-09T02:41:49.870Z,37.00
2022-08-09T02:44:44.644Z,37.04
2022-08-09T02:47:57.818Z,37.19
2022-08-09T02:50:54.352Z,37.21
2022-08-09T02:53:52.930Z,37.15
2022-08-09T02:56:57.057Z,37.21
2022-08-09T03:00:11.637Z,37.29
2022-08-09T03:03:02.006Z,36.92
2022-08-09T03:05:55.553Z,36.84
2022-08-09T03:08:47.826Z,37.05
2022-08-09T03:12:09.619Z,37.04
2022-08-09T03:14:51.906Z,37.01
2022-08-09T03:17:44.828Z,36.95
2022-08-09T03:20:35.052Z,36.94
2022-08-09T03:23:29.047Z,36.95
2022-08-09T03:26:21.583Z,36.79
2022-08-09T03:29:22.724Z,36.68
2022-08-09T03:32:14.936Z,36.79
2022-08-09T03:35:24.454Z,36.60
2022-08-09T03:38:28.537Z,36.76
2022-08-09T03:41:19.386Z,36.55
2022-08-09T03:44:21.987Z,36.61
2022-08-09T03:47:19.687Z,36.33
2022-08-09T03:50:12.280Z,36.51
2022-08-09T03:53:06.268Z,36.41
2022-08-09T03:56:01.594Z,36.32
2022-08-09T03:58:54.680Z,36.04
2022-08-09T04:01:46.301Z,35.95
2022-08-09T04:04:38.806Z,35.97
2022-08-09T04:07:47.593Z,35.95
2022-08-09T04:10:40.436Z,35.84
2022-08-09T04:13:44.883Z,35.98
2022-08-09T04:16:42.030Z,35.89
2022-08-09T04:19:51.091Z,35.81
2022-08-09T04:22:44.869Z,35.71
2022-08-09T04:25:34.996Z,35.56
2022-08-09T04:28:33.195Z,35.58
2022-08-09T04:31:26.272Z,35.50
2022-08-09T04:34:33.637Z,35.53
2022-08-09T04:37:24.578Z,35.36
2022-08-09T04:40:56.168Z,35.36
2022-08-09T04:44:04.907Z,35.16
2022-08-09T04:46:57.763Z,35.04
2022-08-09T04:49:55.055Z,34.97
2022-08-09T04:52:45.639Z,34.91
2022-08-09T04:55:57.452Z,35.09
2022-08-09T04:58:50.795Z,35.29
2022-08-09T05:01:40.985Z,35.35
2022-08-09T05:04:31.652Z,35.48
2022-08-09T05:07:24.904Z,35.50
2022-08-09T05:10:17.960Z,35.84
2022-08-09T05:13:10.828Z,37.23
2022-08-09T05:16:00.827Z,38.83
2022-08-09T05:18:58.415Z,38.43
2022-08-09T05:21:55.265Z,38.06
2022-08-09T05:24:47.630Z,38.11
2022-08-09T05:27:45.546Z,38.02
2022-08-09T05:30:39.237Z,37.68
2022-08-09T05:33:42.426Z,37.74
2022-08-09T05:36:32.793Z,37.56
2022-08-09T05:39:29.442Z,37.37
2022-08-09T05:42:28.025Z,37.54
2022-08-09T05:45:19.455Z,37.31
2022-08-09T05:48:15.497Z,37.20
2022-08-09T05:51:30.225Z,37.30
2022-08-09T05:54:17.979Z,37.11
2022-08-09T05:57:12.724Z,37.06
2022-08-09T06:00:04.736Z,37.02
2022-08-09T06:03:10.671Z,37.03
2022-08-09T06:06:06.149Z,37.04
2022-08-09T06:08:56.512Z,37.11
2022-08-09T06:11:56.932Z,37.22
2022-08-09T06:14:48.166Z,37.05
2022-08-09T06:17:40.599Z,37.03
2022-08-09T06:20:31.759Z,37.13
2022-08-09T06:23:22.176Z,36.99
2022-08-09T06:26:12.903Z,37.13
2022-08-09T06:29:05.232Z,36.87
2022-08-09T06:32:17.197Z,36.65
2022-08-09T06:35:07.366Z,36.40
2022-08-09T06:38:05.980Z,36.15
2022-08-09T06:40:57.322Z,36.01
2022-08-09T06:43:49.682Z,35.98
2022-08-09T06:46:44.762Z,35.93
2022-08-09T06:50:12.168Z,35.82
2022-08-09T06:52:48.807Z,35.49
2022-08-09T06:55:39.025Z,35.22
2022-08-09T07:00:46.446Z,35.23
2022-08-09T07:01:54.220Z,34.90
2022-08-09T07:04:51.713Z,34.68
2022-08-09T07:08:00.693Z,34.81
2022-08-09T07:10:52.662Z,34.46
2022-08-09T07:13:45.328Z,34.72
2022-08-09T07:16:57.700Z,34.54
2022-08-09T07:19:50.916Z,34.24
2022-08-09T07:22:50.948Z,34.42
2022-08-09T07:25:43.646Z,34.17
2022-08-09T07:28:34.678Z,34.04
2022-08-09T07:31:25.260Z,34.07
2022-08-09T07:34:20.105Z,33.93
2022-08-09T07:37:15.545Z,33.69
2022-08-09T07:40:07.783Z,33.55
2022-08-09T07:42:59.867Z,33.58
2022-08-09T07:45:49.794Z,33.62
2022-08-09T07:48:40.588Z,33.76
2022-08-09T07:52:04.947Z,33.44
2022-08-09T07:54:41.117Z,33.28
2022-08-09T07:57:36.033Z,33.20
2022-08-09T08:00:35.772Z,33.22
2022-08-09T08:03:27.255Z,32.55
2022-08-09T08:06:21.334Z,33.00
2022-08-09T08:09:35.585Z,32.90
2022-08-09T08:12:33.852Z,32.66
2022-08-09T08:15:25.208Z,32.45
2022-08-09T08:18:16.463Z,32.89
2022-08-09T08:21:07.601Z,32.66
2022-08-09T08:24:01.095Z,32.47
2022-08-09T08:27:01.826Z,31.91
2022-08-09T08:29:53.242Z,31.72
2022-08-09T08:32:53.469Z,32.07
2022-08-09T08:35:58.440Z,31.91
2022-08-09T08:38:53.831Z,31.72
2022-08-09T08:41:51.425Z,32.06
2022-08-09T08:44:44.224Z,32.08
2022-08-09T08:47:38.592Z,31.75
2022-08-09T08:50:34.958Z,31.58
2022-08-09T08:53:32.267Z,31.81
2022-08-09T08:56:28.580Z,31.80
2022-08-09T08:59:24.160Z,31.88
2022-08-09T09:02:34.016Z,31.77
2022-08-09T09:05:57.713Z,31.82
2022-08-09T09:08:44.314Z,31.70
2022-08-09T09:11:44.761Z,31.69
2022-08-09T09:14:40.931Z,31.59
2022-08-09T09:17:48.267Z,31.64
2022-08-09T09:20:40.265Z,31.39
2022-08-09T09:23:49.598Z,31.51
2022-08-09T09:26:57.755Z,31.43
2022-08-09T09:33:13.957Z,31.35
2022-08-09T09:36:20.588Z,31.46
2022-08-09T09:39:14.504Z,31.41
2022-08-09T09:42:11.886Z,31.11
2022-08-09T09:45:04.105Z,31.14
2022-08-09T09:47:58.433Z,31.07
2022-08-09T09:50:52.731Z,30.96
2022-08-09T09:53:57.477Z,30.83
2022-08-09T09:58:01.516Z,30.73
2022-08-09T10:00:24.210Z,30.83
2022-08-09T10:03:18.294Z,30.67
2022-08-09T10:06:13.332Z,30.29
2022-08-09T10:09:12.058Z,30.14
2022-08-09T10:12:27.987Z,29.97
2022-08-09T10:15:51.150Z,30.00
2022-08-09T10:18:33.681Z,29.95
2022-08-09T10:21:26.524Z,29.64
2022-08-09T10:24:25.648Z,29.76
2022-08-09T10:27:28.708Z,29.52
2022-08-09T10:34:09.658Z,29.42
2022-08-09T10:36:56.905Z,29.36
2022-08-09T10:39:50.047Z,29.04
2022-08-09T10:42:41.142Z,29.26
2022-08-09T10:45:49.221Z,29.35
2022-08-09T10:48:52.263Z,29.26
2022-08-09T10:51:52.793Z,29.20
2022-08-09T10:54:44.300Z,29.51
2022-08-09T10:57:41.794Z,29.52
2022-08-09T11:01:11.039Z,29.38
2022-08-09T11:04:27.807Z,29.44
2022-08-09T11:07:57.563Z,29.46
2022-08-09T11:11:00.774Z,29.29
2022-08-09T11:14:35.365Z,29.37
2022-08-09T11:18:03.097Z,29.46
2022-08-09T11:20:56.447Z,29.26
2022-08-09T11:24:04.151Z,29.26
2022-08-09T11:26:55.120Z,29.36
2022-08-09T11:30:04.640Z,29.33
2022-08-09T11:33:01.763Z,29.32
2022-08-09T11:36:02.357Z,29.29
2022-08-09T11:39:05.579Z,30.01
2022-08-09T11:41:58.932Z,30.84
2022-08-09T11:44:50.157Z,32.10
2022-08-09T11:47:49.408Z,32.81
2022-08-09T11:52:59.085Z,33.33
2022-08-09T11:54:21.620Z,34.15
2022-08-09T11:58:00.005Z,34.73
2022-08-09T12:00:54.562Z,35.28
2022-08-09T12:03:55.947Z,35.35
2022-08-09T12:06:56.624Z,35.52
2022-08-09T12:09:51.383Z,36.94
2022-08-09T12:12:52.841Z,37.63
2022-08-09T12:15:48.885Z,38.36
2022-08-09T12:18:44.536Z,39.36
2022-08-09T12:21:50.514Z,39.42
2022-08-09T12:24:42.993Z,39.67
2022-08-09T12:29:11.904Z,39.58
2022-08-09T12:30:44.583Z,39.19
2022-08-09T12:33:58.629Z,39.47
2022-08-09T12:37:21.393Z,39.46
2022-08-09T12:40:13.570Z,39.71
2022-08-09T12:43:04.567Z,39.84
2022-08-09T12:45:59.742Z,40.10
2022-08-09T12:48:50.666Z,40.58
2022-08-09T12:51:59.976Z,40.86
2022-08-09T12:56:11.015Z,41.24
2022-08-09T12:58:24.347Z,42.41
2022-08-09T13:01:28.952Z,43.22
2022-08-09T13:04:36.668Z,43.34
2022-08-09T13:07:50.958Z,43.00
2022-08-09T13:10:52.345Z,42.84
2022-08-09T13:14:41.145Z,42.83
2022-08-09T13:16:54.796Z,43.02
2022-08-09T13:20:10.211Z,41.68
2022-08-09T13:23:06.043Z,40.89
2022-08-09T13:26:10.054Z,39.88
2022-08-09T13:29:08.888Z,39.63
2022-08-09T13:32:17.101Z,39.90
2022-08-09T13:35:11.587Z,41.09
2022-08-09T13:38:02.587Z,42.37
2022-08-09T13:41:56.541Z,42.96
2022-08-09T13:44:13.642Z,41.82
2022-08-09T13:47:26.714Z,41.79
2022-08-09T13:50:30.016Z,41.26
2022-08-09T13:53:38.741Z,40.99
2022-08-09T13:56:32.352Z,41.44
2022-08-09T13:59:25.360Z,40.42
2022-08-09T14:02:16.743Z,40.44
2022-08-09T14:05:15.704Z,39.67
2022-08-09T14:08:26.827Z,39.98
2022-08-09T14:11:18.933Z,40.64
2022-08-09T14:14:22.539Z,40.85
2022-08-09T14:17:16.905Z,42.01
2022-08-09T14:20:14.410Z,41.75
2022-08-09T14:23:06.644Z,41.41
2022-08-09T14:26:01.619Z,41.48
2022-08-09T14:28:56.696Z,42.47
2022-08-09T14:31:51.860Z,42.56
2022-08-09T14:34:45.496Z,42.46
2022-08-09T14:37:41.297Z,42.64
2022-08-09T14:41:02.830Z,42.54
2022-08-09T14:43:56.906Z,42.21
2022-08-09T14:47:04.714Z,42.17
2022-08-09T14:50:01.801Z,42.52
2022-08-09T14:52:52.171Z,42.33
2022-08-09T14:55:50.264Z,42.17
2022-08-09T14:58:43.791Z,42.17
2022-08-09T15:01:34.102Z,42.50
2022-08-09T15:04:24.820Z,43.28
2022-08-09T15:07:15.558Z,43.94
2022-08-09T15:10:11.297Z,43.90
2022-08-09T15:13:08.703Z,43.78
2022-08-09T15:15:59.432Z,44.29
2022-08-09T15:18:49.832Z,44.43
2022-08-09T15:22:01.305Z,44.47
2022-08-09T15:24:52.536Z,44.71
2022-08-09T15:27:48.140Z,45.17
2022-08-09T15:30:58.118Z,45.39
2022-08-09T15:34:18.381Z,45.35
2022-08-09T15:37:23.645Z,45.07
2022-08-09T15:40:16.500Z,45.04
2022-08-09T15:43:13.530Z,44.73
2022-08-09T15:46:28.336Z,44.47
2022-08-09T15:49:22.843Z,44.47
2022-08-09T15:52:14.007Z,44.62
2022-08-09T15:55:04.420Z,45.43
2022-08-09T15:57:55.051Z,45.85
2022-08-09T16:00:46.064Z,46.19
2022-08-09T16:03:41.652Z,46.56
2022-08-09T16:06:37.696Z,45.87
2022-08-09T16:09:32.404Z,46.25
2022-08-09T16:12:41.555Z,47.01
2022-08-09T16:16:11.298Z,46.84
2022-08-09T16:18:50.748Z,46.46
2022-08-09T16:21:48.585Z,46.98
2022-08-09T16:24:44.914Z,47.35
2022-08-09T16:27:47.909Z,47.81
2022-08-09T16:30:44.610Z,47.39
2022-08-09T16:33:44.961Z,47.27
2022-08-09T16:36:35.366Z,47.54
2022-08-09T16:39:26.474Z,47.37
2022-08-09T16:42:16.804Z,47.95
2022-08-09T16:45:17.586Z,48.24
2022-08-09T16:48:39.301Z,48.30
2022-08-09T16:51:20.537Z,48.39
2022-08-09T16:54:27.719Z,48.55
2022-08-09T16:57:23.126Z,48.72
2022-08-09T17:00:16.478Z,48.80
2022-08-09T17:03:08.344Z,48.98
2022-08-09T17:06:28.840Z,47.96
2022-08-09T17:09:45.498Z,46.24
2022-08-09T17:12:32.766Z,45.85
2022-08-09T17:15:58.716Z,46.26
2022-08-09T17:18:33.701Z,45.97
2022-08-09T17:21:29.004Z,45.83
2022-08-09T17:24:27.071Z,46.43
2022-08-09T17:27:21.055Z,47.08
2022-08-09T17:30:14.405Z,47.24
2022-08-09T17:33:22.254Z,47.28
2022-08-09T17:36:15.595Z,47.33
2022-08-09T17:39:06.527Z,47.24
2022-08-09T17:42:01.478Z,46.63
2022-08-09T17:44:51.703Z,46.38
2022-08-09T17:47:49.907Z,46.03
2022-08-09T17:50:55.908Z,46.06
2022-08-09T17:53:51.559Z,45.97
2022-08-09T17:56:43.925Z,45.78
2022-08-09T17:59:38.277Z,45.87
2022-08-09T18:02:33.474Z,46.85
2022-08-09T18:05:29.350Z,46.79
2022-08-09T18:08:35.547Z,46.62
2022-08-09T18:11:27.741Z,46.90
2022-08-09T18:14:19.254Z,46.93
2022-08-09T18:17:13.450Z,46.84
2022-08-09T18:21:00.487Z,46.17
2022-08-09T18:24:11.280Z,45.31
2022-08-09T18:26:31.966Z,44.30
2022-08-09T18:30:35.403Z,43.49
2022-08-09T18:32:33.766Z,42.72
2022-08-09T18:35:58.321Z,42.30
2022-08-09T18:38:35.562Z,42.06
2022-08-09T18:41:27.419Z,41.81
2022-08-09T18:44:18.031Z,41.61
2022-08-09T18:47:16.622Z,41.03
2022-08-09T18:50:08.987Z,40.59
2022-08-09T18:53:00.282Z,40.67
2022-08-09T18:55:56.957Z,40.74
2022-08-09T18:58:55.800Z,40.18
2022-08-09T19:01:46.517Z,39.95
2022-08-09T19:04:36.672Z,40.11
2022-08-09T19:07:27.752Z,39.95
2022-08-09T19:10:22.570Z,39.90
2022-08-09T19:13:20.566Z,39.80
2022-08-09T19:16:20.945Z,38.96
2022-08-09T19:19:25.422Z,38.58
2022-08-09T19:22:18.493Z,38.55
2022-08-09T19:25:41.379Z,38.57
2022-08-09T19:28:22.285Z,38.17
2022-08-09T19:31:18.954Z,38.42
2022-08-09T19:34:21.481Z,38.39
2022-08-09T19:37:16.823Z,38.43
2022-08-09T19:40:08.470Z,38.26
2022-08-09T19:42:59.169Z,38.03
2022-08-09T19:45:54.385Z,37.86
2022-08-09T19:49:01.668Z,37.58
2022-08-09T19:51:55.257Z,37.40
2022-08-09T19:54:49.558Z,37.42
2022-08-09T19:57:41.163Z,37.32
2022-08-09T20:00:32.832Z,37.48
2022-08-09T20:04:11.676Z,37.32
2022-08-09T20:06:34.335Z,37.30
2022-08-09T20:09:44.620Z,37.26
2022-08-09T20:12:42.702Z,37.21
2022-08-09T20:16:38.058Z,36.93
2022-08-09T20:18:51.998Z,36.90
2022-08-09T20:22:02.030Z,37.00
2022-08-09T20:24:55.249Z,36.90
2022-08-09T20:27:46.065Z,36.91
2022-08-09T20:30:36.734Z,36.75
2022-08-09T20:33:27.893Z,36.67
2022-08-09T20:36:30.508Z,36.67
2022-08-09T20:40:13.851Z,36.70
2022-08-09T20:42:33.238Z,36.81
2022-08-09T20:46:00.168Z,36.69
2022-08-09T20:48:33.788Z,36.79
2022-08-09T20:51:27.318Z,36.68
2022-08-09T20:54:18.550Z,36.82
2022-08-09T20:57:09.676Z,36.67
2022-08-09T21:00:31.411Z,36.56
2022-08-09T21:03:10.525Z,36.58
2022-08-09T21:06:01.306Z,36.57
2022-08-09T21:08:56.545Z,36.50
2022-08-09T21:15:00.555Z,36.44
2022-08-09T21:18:23.354Z,36.67
2022-08-09T21:21:16.989Z,36.47
2022-08-09T21:24:09.257Z,36.49
2022-08-09T21:27:10.510Z,36.41
2022-08-09T21:30:14.181Z,36.12
2022-08-09T21:33:11.622Z,36.09
2022-08-09T21:36:06.979Z,36.11
2022-08-09T21:39:01.119Z,36.16
2022-08-09T21:42:05.177Z,36.20
2022-08-09T21:44:57.380Z,36.06
2022-08-09T21:47:51.036Z,36.08
2022-08-09T21:50:46.675Z,35.99
2022-08-09T21:53:44.016Z,36.05
2022-08-09T21:56:44.604Z,36.24
2022-08-09T21:59:47.623Z,36.14
2022-08-09T22:02:40.233Z,36.27
2022-08-09T22:05:35.629Z,36.21
2022-08-09T22:08:30.315Z,36.26
2022-08-09T22:12:04.336Z,36.43
2022-08-09T22:14:31.335Z,36.30
2022-08-09T22:17:22.504Z,36.37
2022-08-09T22:20:21.519Z,36.59
2022-08-09T22:23:13.381Z,36.41
2022-08-09T22:26:12.779Z,36.40
2022-08-09T22:29:15.099Z,36.50
2022-08-09T22:32:08.063Z,36.76
2022-08-09T22:36:02.397Z,36.82
2022-08-09T22:38:29.019Z,36.74
2022-08-09T22:41:19.964Z,36.81
2022-08-09T22:44:11.348Z,36.71
2022-08-09T22:48:11.230Z,36.68
2022-08-09T22:50:13.539Z,36.77
2022-08-09T22:53:05.283Z,36.68
2022-08-09T22:56:31.499Z,36.85
2022-08-09T22:59:56.072Z,36.90
2022-08-09T23:02:21.164Z,36.80
2022-08-09T23:05:15.953Z,36.81
2022-08-09T23:08:30.070Z,36.96
2022-08-09T23:11:22.410Z,36.93
2022-08-09T23:14:17.560Z,37.04
2022-08-09T23:17:20.732Z,36.95
2022-08-09T23:20:13.767Z,37.08
2022-08-09T23:23:04.994Z,37.16
2022-08-09T23:25:58.293Z,37.18
2022-08-09T23:28:48.788Z,37.12
2022-08-09T23:31:38.981Z,37.17
2022-08-09T23:34:33.759Z,37.14
2022-08-09T23:37:31.461Z,37.13
2022-08-09T23:40:21.368Z,37.26
2022-08-09T23:43:11.754Z,37.17
2022-08-09T23:46:02.448Z,37.34
2022-08-09T23:48:55.286Z,37.23
2022-08-09T23:51:45.765Z,37.29
2022-08-09T23:54:36.843Z,37.34
2022-08-09T23:57:28.681Z,37.62
